الصفحة الرئيسية
METAR-TAF:

METAR-TAF

مطار :

جزيرة جروت آيلاند, أستراليا

دائرة عرض: 13-58-30S, خط طول: 136-27-36E, ارتفاع: 16 متر

مراقبة الطقس الحالي

تاريخ ووقت الإصدار 1ساعة و 14 دقيقة قبل الساعة 21:00UTC
رياح هادئة
درجة الحرارة 13°درجة مئوية
الرطوبة 100%
ضغط 1016 hPa
الرؤية 10 كم أو أكثر

METAR: YGTE 252100Z AUTO 00000KT 9999 // NCD 13/13 Q1016

زمن: 07:44 (22:14 UTC)


TAF: مفقودة

أرصاد الطقس والتوقعات من أكثر من 4000 مطار (تقارير الطقس للمطار METAR والتنبؤ بالطقس بالمطارTAF).

المحطات المتاحة هي النقط الصفراء والحمراء على الخريطة.

حرك المؤشر فوق النقطة لمعرفة اسم المحطة.

ثم انقر لمعرفة أرصاد وتوقعات الطقس.

لتغيير الخارطة: اضغط على الأزرار الخضراء مع رمز الصليب الأسود للتكبير. على الزر الأخضر مع شرطة للتصغير، أو على الأسهم الخضراء للخرائط المجاورة.


METAR-TAF: